Terminal Aerodrome Forecast
Issued by NWS Portland, OR

Home | Current Version | Previous Version | Text Only | Print | Product List | Glossary On
Versions: 1 2 3 4 5 6 7 8 9 10 11 12 13 14 15 16 17 18 19 20 21
000
FTUS46 KPQR 221734
TAFAST
TAF
KAST 221734Z 2218/2318 18015G25KT P6SM -RA FEW010 BKN018 OVC030
     FM222200 18015G25KT 5SM -RA SCT015 BKN025 OVC035
     FM230800 18017G35KT 3SM -RADZ BKN015 OVC025
     FM231500 23012G25KT 5SM -RA BKN025 OVC035=

USA.gov is the U.S. government's official web portal to all federal, state and local government web resources and services.